createdAt,value
2019-05-12T00:01:09.652Z,96.70
2019-05-12T00:03:37.817Z,97.00
2019-05-12T00:06:05.403Z,97.00
2019-05-12T00:08:32.842Z,96.90
2019-05-12T00:11:00.303Z,96.70
2019-05-12T00:13:28.057Z,96.90
2019-05-12T00:15:55.576Z,96.80
2019-05-12T00:18:24.278Z,96.90
2019-05-12T00:20:51.585Z,97.10
2019-05-12T00:23:27.533Z,96.70
2019-05-12T00:25:49.287Z,96.50
2019-05-12T00:28:17.930Z,96.40
2019-05-12T00:30:48.940Z,96.20
2019-05-12T00:33:17.992Z,96.20
2019-05-12T00:35:48.130Z,96.20
2019-05-12T00:38:17.524Z,96.10
2019-05-12T00:40:44.599Z,96.60
2019-05-12T00:43:12.130Z,96.50
2019-05-12T00:45:39.644Z,96.50
2019-05-12T00:48:09.080Z,96.60
2019-05-12T00:50:38.181Z,96.70
2019-05-12T00:53:08.609Z,96.50
2019-05-12T00:55:37.817Z,96.40
2019-05-12T00:58:04.785Z,96.40
2019-05-12T01:00:32.376Z,96.50
2019-05-12T01:02:59.687Z,96.60
2019-05-12T01:05:29.423Z,96.80
2019-05-12T01:07:58.360Z,96.90
2019-05-12T01:10:28.314Z,97.10
2019-05-12T01:12:57.858Z,97.20
2019-05-12T01:15:24.672Z,97.40
2019-05-12T01:17:51.997Z,97.50
2019-05-12T01:20:19.527Z,97.60
2019-05-12T01:22:50.333Z,97.60
2019-05-12T01:25:17.639Z,97.80
2019-05-12T01:27:45.113Z,97.80
2019-05-12T01:30:12.774Z,97.90
2019-05-12T01:32:40.555Z,97.90
2019-05-12T01:35:09.300Z,98.00
2019-05-12T01:37:38.448Z,98.20
2019-05-12T01:40:08.749Z,98.30
2019-05-12T01:42:38.209Z,98.40
2019-05-12T01:45:09.222Z,98.50
2019-05-12T01:47:38.258Z,98.60
2019-05-12T01:50:09.114Z,98.60
2019-05-12T01:52:38.722Z,98.60
2019-05-12T01:55:08.158Z,98.70
2019-05-12T01:57:38.258Z,98.90
2019-05-12T02:00:09.390Z,99.00
2019-05-12T02:02:38.615Z,99.10
2019-05-12T02:05:08.786Z,99.20
2019-05-12T02:07:41.333Z,99.30
2019-05-12T02:10:09.924Z,99.30
2019-05-12T02:12:38.347Z,99.30
2019-05-12T02:15:08.335Z,99.30
2019-05-12T02:17:35.943Z,99.30
2019-05-12T02:20:07.680Z,99.50
2019-05-12T02:22:34.932Z,99.50
2019-05-12T02:25:02.667Z,99.60
2019-05-12T02:27:30.093Z,99.60
2019-05-12T02:29:58.613Z,99.70
2019-05-12T02:32:35.505Z,99.90
2019-05-12T02:34:55.915Z,99.90
2019-05-12T02:37:26.235Z,99.90
2019-05-12T02:39:55.653Z,99.70
2019-05-12T02:42:24.409Z,99.90
2019-05-12T02:44:54.983Z,99.90
2019-05-12T02:47:24.022Z,99.90
2019-05-12T02:49:50.693Z,99.90
2019-05-12T02:52:18.943Z,99.90
2019-05-12T02:54:55.266Z,99.90
2019-05-12T02:57:17.624Z,99.90
2019-05-12T02:59:47.131Z,99.90
2019-05-12T03:02:15.206Z,99.90
2019-05-12T03:04:44.264Z,99.90
2019-05-12T03:07:15.381Z,99.90
2019-05-12T03:09:44.562Z,99.90
2019-05-12T03:12:10.937Z,99.90
2019-05-12T03:14:41.041Z,99.90
2019-05-12T03:17:07.533Z,99.90
2019-05-12T03:19:34.874Z,99.90
2019-05-12T03:22:05.040Z,99.90
2019-05-12T03:24:34.222Z,99.90
2019-05-12T03:27:04.138Z,99.90
2019-05-12T03:29:30.274Z,99.90
2019-05-12T03:31:57.738Z,99.90
2019-05-12T03:34:29.334Z,99.90
2019-05-12T03:36:58.868Z,99.90
2019-05-12T03:39:25.156Z,99.90
2019-05-12T03:41:54.646Z,99.90
2019-05-12T03:44:25.005Z,99.90
2019-05-12T03:46:54.202Z,99.90
2019-05-12T03:49:20.641Z,99.90
2019-05-12T03:51:48.038Z,99.90
2019-05-12T03:54:15.624Z,99.90
2019-05-12T03:56:45.045Z,99.90
2019-05-12T03:59:14.685Z,99.90
2019-05-12T04:01:44.807Z,99.90
2019-05-12T04:04:10.779Z,99.90
2019-05-12T04:06:38.358Z,99.90
2019-05-12T04:09:08.225Z,99.90
2019-05-12T04:11:37.412Z,99.90
2019-05-12T04:14:05.591Z,99.90
2019-05-12T04:16:36.382Z,99.90
2019-05-12T04:19:05.272Z,99.90
2019-05-12T04:21:35.058Z,99.90
2019-05-12T04:24:05.403Z,99.70
2019-05-12T04:26:36.109Z,99.70
2019-05-12T04:29:04.816Z,99.50
2019-05-12T04:31:31.050Z,99.60
2019-05-12T04:33:58.402Z,99.50
2019-05-12T04:36:25.983Z,99.40
2019-05-12T04:38:55.660Z,99.50
2019-05-12T04:41:25.623Z,99.70
2019-05-12T04:43:54.917Z,99.60
2019-05-12T04:46:21.255Z,99.50
2019-05-12T04:48:48.576Z,99.50
2019-05-12T04:51:16.108Z,99.30
2019-05-12T04:53:44.855Z,99.30
2019-05-12T04:56:19.259Z,99.30
2019-05-12T04:58:45.052Z,99.30
2019-05-12T05:01:15.454Z,99.30
2019-05-12T05:03:44.300Z,99.20
2019-05-12T05:06:14.543Z,98.90
2019-05-12T05:08:44.275Z,98.70
2019-05-12T05:11:11.015Z,98.50
2019-05-12T05:13:39.796Z,98.40
2019-05-12T05:16:07.480Z,98.20
2019-05-12T05:18:35.100Z,98.10
2019-05-12T05:21:04.730Z,97.90
2019-05-12T05:23:33.550Z,97.80
2019-05-12T05:26:03.169Z,97.50
2019-05-12T05:28:30.353Z,97.30
2019-05-12T05:30:57.731Z,96.90
2019-05-12T05:33:25.368Z,96.60
2019-05-12T05:35:54.322Z,96.40
2019-05-12T05:38:23.698Z,96.00
2019-05-12T05:40:51.294Z,95.80
2019-05-12T05:43:18.962Z,95.50
2019-05-12T05:45:46.335Z,94.70
2019-05-12T05:48:14.192Z,94.70
2019-05-12T05:50:43.725Z,94.50
2019-05-12T05:53:17.943Z,94.30
2019-05-12T05:55:40.164Z,94.00
2019-05-12T05:58:10.352Z,94.00
2019-05-12T06:00:39.355Z,94.10
2019-05-12T06:03:06.265Z,94.00
2019-05-12T06:05:35.430Z,93.70
2019-05-12T06:08:04.166Z,93.20
2019-05-12T06:10:36.057Z,92.70
2019-05-12T06:13:01.023Z,92.00
2019-05-12T06:15:29.679Z,91.50
2019-05-12T06:17:58.866Z,91.10
2019-05-12T06:20:29.395Z,91.00
2019-05-12T06:22:57.703Z,90.10
2019-05-12T06:25:26.535Z,89.70
2019-05-12T06:28:00.156Z,89.80
2019-05-12T06:30:24.288Z,89.90
2019-05-12T06:32:54.460Z,89.80
2019-05-12T06:35:21.068Z,88.00
2019-05-12T06:37:57.329Z,87.60
2019-05-12T06:40:18.254Z,86.50
2019-05-12T06:42:48.301Z,84.70
2019-05-12T06:45:15.074Z,84.30
2019-05-12T06:47:45.354Z,84.70
2019-05-12T06:50:14.308Z,83.00
2019-05-12T06:52:44.622Z,82.30
2019-05-12T06:55:10.776Z,81.30
2019-05-12T06:57:44.992Z,80.10
2019-05-12T07:00:09.621Z,78.10
2019-05-12T07:02:49.055Z,77.40
2019-05-12T07:05:06.663Z,75.10
2019-05-12T07:07:42.184Z,73.00
2019-05-12T07:10:11.780Z,73.30
2019-05-12T07:12:54.114Z,71.30
2019-05-12T07:15:07.223Z,68.20
2019-05-12T07:17:59.619Z,66.30
2019-05-12T07:20:29.097Z,63.80
2019-05-12T07:22:59.340Z,60.70
2019-05-12T07:25:31.297Z,61.00
2019-05-12T07:28:00.734Z,59.20
2019-05-12T07:30:27.516Z,58.10
2019-05-12T07:32:59.913Z,55.90
2019-05-12T07:35:28.537Z,54.00
2019-05-12T07:37:57.534Z,54.40
2019-05-12T07:40:29.986Z,53.00
2019-05-12T07:42:56.638Z,53.10
2019-05-12T07:45:25.226Z,54.00
2019-05-12T07:47:54.153Z,53.40
2019-05-12T07:50:26.492Z,51.90
2019-05-12T07:52:51.402Z,50.80
2019-05-12T07:55:19.047Z,50.20
2019-05-12T07:57:55.227Z,50.10
2019-05-12T08:00:25.761Z,50.60
2019-05-12T08:02:46.330Z,51.70
2019-05-12T08:05:19.670Z,52.40
2019-05-12T08:07:45.203Z,52.10
2019-05-12T08:10:19.988Z,52.70
2019-05-12T08:12:51.174Z,53.30
2019-05-12T08:15:16.175Z,53.40
2019-05-12T08:17:55.369Z,53.60
2019-05-12T08:20:19.623Z,53.40
2019-05-12T08:22:49.103Z,54.20
2019-05-12T08:25:18.910Z,55.00
2019-05-12T08:27:50.252Z,55.20
2019-05-12T08:30:17.574Z,55.00
2019-05-12T08:32:45.062Z,54.90
2019-05-12T08:35:14.012Z,54.50
2019-05-12T08:37:43.944Z,55.10
2019-05-12T08:40:11.254Z,55.40
2019-05-12T08:42:38.814Z,55.00
2019-05-12T08:45:08.257Z,56.20
2019-05-12T08:47:38.898Z,55.60
2019-05-12T08:50:07.562Z,54.90
2019-05-12T08:52:37.201Z,52.30
2019-05-12T08:55:04.854Z,47.90
2019-05-12T08:57:40.516Z,46.10
2019-05-12T09:00:03.439Z,44.90
2019-05-12T09:02:34.455Z,43.70
2019-05-12T09:05:04.654Z,42.20
2019-05-12T09:07:35.936Z,41.00
2019-05-12T09:10:04.112Z,41.60
2019-05-12T09:12:33.871Z,41.00
2019-05-12T09:15:01.421Z,39.70
2019-05-12T09:17:29.403Z,39.60
2019-05-12T09:20:05.984Z,40.20
2019-05-12T09:22:34.159Z,40.60
2019-05-12T09:25:06.347Z,41.50
2019-05-12T09:27:33.472Z,42.30
2019-05-12T09:30:09.684Z,43.40
2019-05-12T09:32:39.177Z,43.30
2019-05-12T09:35:11.212Z,44.20
2019-05-12T09:37:44.175Z,45.50
2019-05-12T09:40:20.649Z,48.20
2019-05-12T09:42:47.709Z,50.00
2019-05-12T09:45:15.720Z,52.00
2019-05-12T09:47:43.631Z,53.20
2019-05-12T09:50:18.366Z,54.30
2019-05-12T09:52:43.899Z,55.50
2019-05-12T09:55:10.843Z,57.00
2019-05-12T09:57:42.960Z,58.20
2019-05-12T10:00:13.611Z,59.50
2019-05-12T10:02:45.948Z,60.70
2019-05-12T10:05:14.697Z,61.00
2019-05-12T10:07:44.380Z,60.70
2019-05-12T10:10:14.027Z,60.60
2019-05-12T10:12:46.154Z,60.60
2019-05-12T10:15:13.326Z,59.70
2019-05-12T10:17:40.670Z,58.60
2019-05-12T10:20:08.512Z,57.80
2019-05-12T10:22:39.970Z,57.80
2019-05-12T10:25:07.353Z,57.10
2019-05-12T10:27:35.077Z,56.50
2019-05-12T10:30:11.889Z,55.30
2019-05-12T10:32:34.981Z,51.60
2019-05-12T10:35:03.745Z,48.70
2019-05-12T10:37:31.244Z,44.90
2019-05-12T10:39:58.673Z,41.10
2019-05-12T10:42:25.990Z,40.60
2019-05-12T10:44:56.535Z,40.00
2019-05-12T10:47:26.190Z,38.20
2019-05-12T10:49:53.967Z,38.50
2019-05-12T10:52:21.521Z,37.00
2019-05-12T10:54:49.203Z,35.80
2019-05-12T10:57:16.773Z,35.70
2019-05-12T10:59:48.421Z,35.60
2019-05-12T11:02:13.978Z,35.30
2019-05-12T11:04:43.939Z,35.40
2019-05-12T11:07:13.474Z,36.10
2019-05-12T11:09:40.846Z,37.40
2019-05-12T11:12:19.202Z,39.20
2019-05-12T11:14:44.046Z,40.80
2019-05-12T11:17:13.723Z,42.30
2019-05-12T11:19:47.173Z,44.90
2019-05-12T11:22:10.540Z,47.20
2019-05-12T11:24:37.919Z,49.40
2019-05-12T11:27:05.382Z,51.80
2019-05-12T11:29:45.574Z,53.90
2019-05-12T11:32:03.970Z,55.40
2019-05-12T11:34:33.543Z,57.30
2019-05-12T11:37:03.273Z,58.40
2019-05-12T11:39:37.178Z,60.20
2019-05-12T11:42:01.048Z,61.40
2019-05-12T11:44:29.211Z,63.40
2019-05-12T11:46:57.032Z,64.70
2019-05-12T11:49:26.427Z,66.10
2019-05-12T11:51:54.418Z,67.40
2019-05-12T11:54:24.082Z,68.70
2019-05-12T11:56:53.390Z,69.50
2019-05-12T11:59:20.486Z,70.30
2019-05-12T12:01:51.493Z,71.30
2019-05-12T12:04:18.058Z,71.90
2019-05-12T12:06:45.527Z,72.40
2019-05-12T12:09:15.309Z,73.20
2019-05-12T12:11:43.391Z,72.70
2019-05-12T12:14:10.811Z,73.00
2019-05-12T12:16:41.929Z,73.50
2019-05-12T12:19:08.398Z,73.70
2019-05-12T12:21:40.526Z,73.00
2019-05-12T12:24:06.533Z,72.20
2019-05-12T12:26:37.314Z,71.20
2019-05-12T12:29:05.541Z,70.30
2019-05-12T12:31:53.632Z,70.30
2019-05-12T12:34:25.092Z,71.10
2019-05-12T12:36:54.172Z,72.60
2019-05-12T12:39:23.803Z,75.30
2019-05-12T12:41:58.323Z,77.80
2019-05-12T12:44:24.043Z,79.40
2019-05-12T12:46:59.942Z,81.00
2019-05-12T12:49:29.101Z,82.30
2019-05-12T12:51:56.408Z,83.40
2019-05-12T12:54:23.777Z,84.50
2019-05-12T12:56:53.929Z,85.80
2019-05-12T12:59:24.516Z,86.00
2019-05-12T13:01:52.848Z,87.40
2019-05-12T13:04:20.323Z,88.40
2019-05-12T13:06:48.659Z,89.30
2019-05-12T13:09:24.184Z,90.10
2019-05-12T13:11:47.567Z,90.60
2019-05-12T13:14:15.025Z,91.00
2019-05-12T13:16:43.730Z,91.10
2019-05-12T13:19:13.138Z,91.50
2019-05-12T13:21:40.531Z,91.80
2019-05-12T13:24:09.205Z,92.40
2019-05-12T13:26:36.664Z,92.60
2019-05-12T13:29:04.436Z,92.70
2019-05-12T13:31:33.303Z,92.80
2019-05-12T13:34:00.778Z,92.90
2019-05-12T13:36:29.631Z,93.70
2019-05-12T13:38:57.950Z,93.20
2019-05-12T13:41:26.595Z,93.20
2019-05-12T13:43:59.028Z,93.30
2019-05-12T13:46:24.477Z,93.40
2019-05-12T13:48:57.593Z,93.70
2019-05-12T13:51:24.164Z,93.90
2019-05-12T13:53:52.168Z,94.10
2019-05-12T13:56:27.390Z,94.40
2019-05-12T13:58:54.002Z,94.40
2019-05-12T14:01:24.876Z,94.70
2019-05-12T14:03:53.616Z,94.80
2019-05-12T14:06:23.070Z,95.10
2019-05-12T14:08:53.599Z,95.20
2019-05-12T14:11:24.017Z,95.40
2019-05-12T14:13:51.779Z,95.30
2019-05-12T14:16:19.524Z,95.60
2019-05-12T14:18:51.171Z,95.70
2019-05-12T14:21:18.407Z,95.90
2019-05-12T14:23:46.269Z,96.10
2019-05-12T14:26:14.639Z,96.40
2019-05-12T14:28:49.602Z,96.40
2019-05-12T14:31:26.614Z,96.60
2019-05-12T14:33:45.960Z,96.70
2019-05-12T14:36:21.564Z,96.80
2019-05-12T14:38:43.890Z,97.00
2019-05-12T14:41:13.883Z,97.10
2019-05-12T14:43:47.083Z,97.60
2019-05-12T14:46:13.473Z,98.40
2019-05-12T14:48:48.467Z,98.20
2019-05-12T14:51:11.327Z,98.10
2019-05-12T14:53:41.405Z,98.50
2019-05-12T14:56:13.912Z,98.80
2019-05-12T14:58:41.013Z,99.10
2019-05-12T15:01:08.488Z,99.00
2019-05-12T15:03:36.982Z,99.10
2019-05-12T15:06:07.233Z,99.20
2019-05-12T15:08:37.199Z,99.30
2019-05-12T15:11:04.075Z,99.50
2019-05-12T15:13:34.272Z,99.70
2019-05-12T15:16:04.693Z,99.80
2019-05-12T15:18:32.901Z,99.90
2019-05-12T15:21:00.270Z,99.90
2019-05-12T15:23:32.584Z,99.90
2019-05-12T15:25:57.562Z,99.90
2019-05-12T15:28:25.021Z,99.90
2019-05-12T15:30:54.143Z,99.90
2019-05-12T15:33:24.104Z,99.90
2019-05-12T15:36:15.665Z,99.90
2019-05-12T15:38:43.882Z,99.90
2019-05-12T15:41:16.920Z,99.90
2019-05-12T15:43:46.811Z,99.90
2019-05-12T15:46:10.399Z,99.90
2019-05-12T15:48:38.442Z,99.90
2019-05-12T15:51:08.564Z,99.90
2019-05-12T15:53:35.885Z,99.90
2019-05-12T15:56:05.733Z,99.90
2019-05-12T15:58:33.629Z,99.90
2019-05-12T16:01:01.296Z,99.90
2019-05-12T16:03:28.711Z,99.90
2019-05-12T16:06:01.301Z,99.90
2019-05-12T16:08:26.255Z,99.90
2019-05-12T16:10:56.189Z,99.90
2019-05-12T16:13:24.394Z,99.90
2019-05-12T16:15:57.704Z,99.90
2019-05-12T16:18:23.886Z,99.90
2019-05-12T16:20:53.653Z,99.90
2019-05-12T16:23:24.922Z,99.90
2019-05-12T16:25:50.492Z,99.90
2019-05-12T16:28:23.460Z,99.90
2019-05-12T16:30:47.935Z,99.90
2019-05-12T16:33:20.523Z,99.90
2019-05-12T16:35:45.710Z,99.90
2019-05-12T16:38:19.668Z,99.90
2019-05-12T16:40:45.636Z,99.90
2019-05-12T16:43:14.492Z,99.90
2019-05-12T16:45:42.035Z,99.90
2019-05-12T16:48:28.208Z,99.90
2019-05-12T16:50:40.309Z,99.90
2019-05-12T16:53:13.366Z,99.90
2019-05-12T16:55:44.860Z,99.90
2019-05-12T16:58:06.446Z,99.90
2019-05-12T17:00:34.054Z,99.90
2019-05-12T17:03:03.875Z,99.90
2019-05-12T17:05:33.503Z,99.90
2019-05-12T17:08:04.035Z,99.90
2019-05-12T17:10:30.892Z,99.90
2019-05-12T17:12:58.255Z,99.90
2019-05-12T17:15:25.706Z,99.90
2019-05-12T17:17:59.219Z,99.90
2019-05-12T17:20:25.275Z,99.90
2019-05-12T17:22:55.226Z,99.90
2019-05-12T17:25:23.957Z,99.90
2019-05-12T17:27:51.610Z,99.90
2019-05-12T17:30:19.234Z,99.90
2019-05-12T17:32:57.968Z,99.90
2019-05-12T17:35:20.400Z,99.90
2019-05-12T17:37:45.593Z,99.90
2019-05-12T17:40:18.345Z,99.90
2019-05-12T17:42:44.088Z,99.90
2019-05-12T17:45:15.867Z,99.90
2019-05-12T17:47:44.530Z,99.90
2019-05-12T17:50:13.629Z,99.90
2019-05-12T17:52:41.349Z,99.90
2019-05-12T17:55:10.900Z,99.90
2019-05-12T17:57:38.371Z,99.90
2019-05-12T18:00:10.653Z,99.90
2019-05-12T18:02:35.873Z,99.90
2019-05-12T18:05:07.672Z,99.90
2019-05-12T18:10:48.746Z,99.90
2019-05-12T18:13:23.159Z,99.90
2019-05-12T18:15:46.559Z,99.90
2019-05-12T18:18:17.416Z,99.90
2019-05-12T18:20:44.649Z,99.90
2019-05-12T18:23:13.416Z,99.90
2019-05-12T18:25:44.278Z,99.90
2019-05-12T18:28:13.966Z,99.90
2019-05-12T18:30:41.828Z,99.90
2019-05-12T18:33:09.595Z,99.90
2019-05-12T18:35:37.142Z,99.90
2019-05-12T18:38:07.858Z,99.90
2019-05-12T18:40:34.711Z,99.90
2019-05-12T18:43:03.945Z,99.90
2019-05-12T18:45:33.472Z,99.90
2019-05-12T18:48:08.353Z,99.90
2019-05-12T18:50:34.280Z,99.90
2019-05-12T18:53:01.297Z,99.90
2019-05-12T18:55:34.960Z,99.90
2019-05-12T18:57:59.811Z,99.90
2019-05-12T19:00:28.061Z,99.90
2019-05-12T19:02:59.613Z,99.90
2019-05-12T19:05:30.527Z,99.90
2019-05-12T19:07:56.015Z,99.90
2019-05-12T19:10:24.225Z,99.90
2019-05-12T19:13:01.129Z,99.90
2019-05-12T19:15:22.531Z,99.90
2019-05-12T19:17:50.299Z,99.90
2019-05-12T19:20:19.812Z,99.90
2019-05-12T19:22:56.164Z,99.90
2019-05-12T19:25:19.471Z,99.90
2019-05-12T19:27:54.986Z,99.90
2019-05-12T19:30:19.508Z,99.90
2019-05-12T19:32:54.770Z,99.90
2019-05-12T19:35:23.655Z,99.90
2019-05-12T19:37:53.868Z,99.90
2019-05-12T19:40:23.272Z,99.90
2019-05-12T19:43:06.182Z,99.90
2019-05-12T19:45:35.491Z,99.90
2019-05-12T19:48:04.100Z,99.90
2019-05-12T19:50:32.009Z,99.90
2019-05-12T19:52:59.766Z,99.90
2019-05-12T19:55:28.528Z,99.90
2019-05-12T19:57:56.388Z,99.90
2019-05-12T20:00:25.421Z,99.90
2019-05-12T20:02:53.782Z,99.90
2019-05-12T20:05:23.692Z,99.90
2019-05-12T20:07:53.562Z,99.90
2019-05-12T20:10:21.025Z,99.90
2019-05-12T20:12:53.893Z,99.90
2019-05-12T20:15:18.579Z,99.90
2019-05-12T20:17:48.738Z,99.90
2019-05-12T20:20:17.995Z,99.90
2019-05-12T20:22:45.990Z,99.90
2019-05-12T20:25:14.611Z,99.90
2019-05-12T20:27:56.166Z,99.90
2019-05-12T20:30:21.310Z,99.90
2019-05-12T20:32:48.766Z,99.90
2019-05-12T20:35:16.190Z,99.90
2019-05-12T20:37:52.795Z,99.90
2019-05-12T20:40:13.934Z,99.90
2019-05-12T20:42:53.853Z,99.90
2019-05-12T20:45:13.411Z,99.90
2019-05-12T20:47:44.816Z,99.90
2019-05-12T20:50:10.191Z,99.90
2019-05-12T20:52:39.296Z,99.90
2019-05-12T20:55:07.398Z,99.90
2019-05-12T20:57:34.914Z,99.90
2019-05-12T21:00:08.283Z,99.90
2019-05-12T21:02:34.541Z,99.90
2019-05-12T21:05:09.433Z,99.90
2019-05-12T21:07:33.609Z,99.90
2019-05-12T21:10:00.854Z,99.90
2019-05-12T21:12:28.296Z,99.90
2019-05-12T21:15:11.453Z,99.90
2019-05-12T21:17:39.378Z,99.90
2019-05-12T21:19:59.186Z,99.90
2019-05-12T21:22:23.816Z,99.90
2019-05-12T21:24:53.458Z,99.90
2019-05-12T21:27:21.631Z,99.90
2019-05-12T21:29:49.069Z,99.90
2019-05-12T21:32:17.635Z,99.90
2019-05-12T21:34:46.071Z,99.90
2019-05-12T21:37:14.074Z,99.90
2019-05-12T21:39:46.864Z,99.90
2019-05-12T21:42:11.110Z,99.90
2019-05-12T21:44:41.361Z,99.90
2019-05-12T21:47:10.556Z,99.90
2019-05-12T21:49:37.556Z,99.90
2019-05-12T21:52:06.542Z,99.90
2019-05-12T21:54:36.149Z,99.90
2019-05-12T21:57:03.764Z,99.90
2019-05-12T21:59:35.363Z,99.90
2019-05-12T22:02:00.767Z,99.90
2019-05-12T22:04:32.922Z,99.90
2019-05-12T22:06:59.082Z,99.90
2019-05-12T22:09:26.554Z,99.90
2019-05-12T22:11:56.395Z,99.90
2019-05-12T22:14:24.031Z,99.90
2019-05-12T22:16:53.593Z,99.90
2019-05-12T22:19:21.257Z,99.90
2019-05-12T22:21:49.595Z,99.90
2019-05-12T22:24:17.339Z,99.90
2019-05-12T22:26:46.702Z,99.90
2019-05-12T22:29:15.290Z,99.90
2019-05-12T22:31:44.969Z,99.90
2019-05-12T22:34:12.030Z,99.90
2019-05-12T22:36:45.238Z,99.90
2019-05-12T22:39:10.737Z,99.90
2019-05-12T22:41:41.414Z,99.90
2019-05-12T22:44:07.633Z,99.90
2019-05-12T22:46:35.809Z,99.90
2019-05-12T22:49:04.220Z,99.90
2019-05-12T22:51:31.704Z,99.90
2019-05-12T22:54:00.636Z,99.90
2019-05-12T22:56:30.077Z,99.90
2019-05-12T22:59:00.087Z,99.90
2019-05-12T23:01:33.891Z,99.90
2019-05-12T23:03:59.435Z,99.90
2019-05-12T23:06:35.869Z,99.90
2019-05-12T23:08:57.645Z,99.90
2019-05-12T23:11:31.975Z,99.90
2019-05-12T23:13:54.319Z,99.90
2019-05-12T23:16:27.640Z,99.90
2019-05-12T23:18:53.721Z,99.90
2019-05-12T23:21:21.418Z,99.90
2019-05-12T23:23:50.146Z,99.90
2019-05-12T23:26:18.267Z,99.90
2019-05-12T23:28:46.739Z,99.90
2019-05-12T23:31:19.472Z,99.90
2019-05-12T23:33:44.246Z,99.90
2019-05-12T23:36:15.801Z,99.90
2019-05-12T23:38:43.921Z,99.90
2019-05-12T23:41:13.593Z,99.90
2019-05-12T23:43:40.958Z,99.90
2019-05-12T23:46:08.373Z,99.90
2019-05-12T23:48:35.676Z,99.90
2019-05-12T23:51:03.843Z,99.90
2019-05-12T23:53:33.683Z,99.90
2019-05-12T23:56:03.784Z,99.90
2019-05-12T23:58:31.203Z,99.90
